Airfield :
LOGIN :

Register | Disclaimer

   EN    FR    IT 

 










Legend :    VFR   Marginal VFR   IFR   Intensive IFR   Very Intensive IFR
Visi :
Ceiling :
>= 8 km
>= 3000ft
5 to 8 km
1000 to 3000 ft
1500m to 5 km
500 to 1000 ft
800 to 1500m
200 to 500 ft
< 800m
< 200 ft
Symbols :   Thunderstorms  Fog  Heavy snow  Heavy precipitations  Wind > 20 kt
SIGMETs :     Misc.  Thunderstorms  Icing  Turbulence  Mountain Waves  Volcanic Ashes






- Airport Elevation : 489 ft
- IATA code : GDN


EPGD - Gdansk

CURRENT METAR :
  • 160000Z 24017KT 9999 FEW030 05/01 Q1002

EXPIRED METARs :
  • 152330Z 23015KT 9999 FEW030 05/01 Q1002
  • 152300Z 23015KT 9999 SCT031 05/01 Q1002
  • 152230Z 24018KT 9999 FEW038 05/00 Q1001
  • 152200Z 24017G27KT 9999 BKN035 05/00 Q1001
  • 152130Z 24017KT 9999 BKN037 06/01 Q1000

TAF TAF EPGD
Valid from the 16 at 00:00 until the 17 at 00:00 UTC


152330Z 1600/1624 24014KT 9999 SCT040
TEMPO 1600/1603 23016G26KT
PROB40 1600/1609 BKN008
BECMG 1610/1612 BKN010
PROB40 1614/1624 3000 -RA BR BKN004



MET'MAP, your aeronautical weather chart ! - Copyright ORBIFLY December 2007 - Disclaimer

ORBIFLY MET'MAP TEAM :

Programming & Development : Alexandra Zaïnal
Concept & original design : Baudouin d'Aumeries
Assistance for programming : Marc-Olivier Méhu
Technical & hardware support : Manuel Goepfert

Contact : metmap@orbifly.com




SOURCES & CREDITS :

   NOAA